Terminal Aerodrome Forecast
Issued by NWS King Salmon, AK

Home | Current Version | Previous Version | Text Only | Print | Product List | Glossary On
Versions: 1 2 3 4 5 6 7 8 9 10 11 12
000
FTAK31 PANC 232323
TAFAKN
TAF
PAKN 232323Z 2400/2424 16011KT 6SM -RA FEW010 OVC025
     FM240400 17008KT 4SM -RA BR OVC015
     FM241100 17005KT 4SM -RA BR OVC007
     FM242100 15006KT 6SM -RA OVC015=

USA.gov is the U.S. government's official web portal to all federal, state and local government web resources and services.